Terminal Aerodrome Forecast
Issued by NWS

Home | Current Version | Previous Version | Text Only | Print | Product List | Glossary On
Versions: 1 2 3 4 5 6 7 8 9 10 11 12 13 14
000
FTUS46 KPQR 211427 AAA
TAFONP
TAF AMD
KONP 211427Z 2114/2212 07004KT P6SM -RA BKN007 OVC015
      TEMPO 2115/2117 SCT007 BKN020
     FM211700 31010KT P6SM -SHRA BKN025 OVC100
     FM220200 32003KT P6SM SCT025 BKN100=

USA.gov is the U.S. government's official web portal to all federal, state and local government web resources and services.